»·PEaware :: SWA2202 KLAX-KLAS

SWA2202 :: KLAX-KLAS

FLIGHT INFORMATION

Flight Status: Arrived
Operator:
Southwest Airlines
More flights by this operator :: More flights under this callsign
Pilot: Charles D. (23067)
Aircraft: BOEING 737-800
(B738)
More flights by this aircraft type
Origin: KLAX Los Angeles Intl
United States
Destination: KLAS McCarran Intl
United States
More flights between these airports :: More routes between these airports
Route: ORCKA3 MISEN KEPEC6
File this flight plan on PilotEdge
Remarks: RMK / SIMBRIEF
Altitude:
(Current/Filed)
29,000ft
Speed:
(Current/Filed)
456kts
Departed: 13-Mar-19 08:34 AM
Arrived: 13-Mar-19 09:20 AM
Distance/Time
Traveled:
205nm/0:46
Distance/Time
To Go:
Arrived

Flight Plot

Page will automatically refresh every two minutes.

Flight plan parsing failed; only flown route is shown


Map Options




Map Legend


Flown Route
Filed Route
Departure Airport
Arrival Airport
Navaid (VOR, NDB)
Fix

Horizontal Profiles

Position Reports

Time Latitude Longitude Heading Altitude Ground
Speed
13-Mar-19 08:17 33.947884 -118.401107 183 116ft 0kts
13-Mar-19 08:18 33.947884 -118.401107 183 116ft 0kts
13-Mar-19 08:19 33.947884 -118.401107 183 116ft 0kts
13-Mar-19 08:22 33.947884 -118.401107 183 116ft 0kts
13-Mar-19 08:23 33.947884 -118.401107 183 116ft 0kts
13-Mar-19 08:24 33.947884 -118.401107 183 116ft 0kts
13-Mar-19 08:25 33.947884 -118.401107 183 116ft 0kts
13-Mar-19 08:26 33.947884 -118.401107 183 116ft 0kts
13-Mar-19 08:27 33.948181 -118.401017 212 115ft 2kts
13-Mar-19 08:28 33.948446 -118.400406 275 114ft 1kts
13-Mar-19 08:29 33.948434 -118.400310 279 114ft 0kts
13-Mar-19 08:30 33.948434 -118.400310 279 114ft 0kts
13-Mar-19 08:32 33.949169 -118.401387 320 115ft 0kts
13-Mar-19 08:33 33.949444 -118.401595 334 115ft 10kts
13-Mar-19 08:34 33.946351 -118.437282 264 933ft 178kts
13-Mar-19 08:35 33.939984 -118.503452 265 2863ft 242kts
13-Mar-19 08:36 33.931709 -118.590852 267 4963ft 274kts
13-Mar-19 08:37 33.894252 -118.659734 177 5998ft 292kts
13-Mar-19 08:38 33.861455 -118.590859 59 9037ft 276kts
13-Mar-19 08:39 33.898763 -118.506847 53 11437ft 316kts
13-Mar-19 08:40 33.943074 -118.412936 46 14426ft 332kts
13-Mar-19 08:41 33.996089 -118.320139 45 17146ft 351kts
13-Mar-19 08:42 34.051657 -118.222516 45 19607ft 369kts
13-Mar-19 08:43 34.111233 -118.117528 44 21890ft 389kts
13-Mar-19 08:44 34.173745 -118.006956 44 24008ft 408kts
13-Mar-19 08:45 34.238691 -117.891657 44 25918ft 427kts
13-Mar-19 08:46 34.307426 -117.769206 44 27661ft 447kts
13-Mar-19 08:47 34.379135 -117.643571 42 29054ft 466kts
13-Mar-19 08:48 34.454273 -117.517895 43 29063ft 482kts
13-Mar-19 08:49 34.532064 -117.386993 43 29065ft 483kts
13-Mar-19 08:49 34.597921 -117.275839 43 29047ft 483kts
13-Mar-19 08:51 34.689303 -117.121080 43 29050ft 482kts
13-Mar-19 08:52 34.767744 -116.987717 44 29046ft 486kts
13-Mar-19 08:52 34.832307 -116.877323 44 28611ft 468kts
13-Mar-19 08:54 34.917216 -116.731424 43 27435ft 442kts
13-Mar-19 08:55 34.985604 -116.610659 44 26441ft 427kts
13-Mar-19 08:55 35.039190 -116.515407 44 25630ft 414kts
13-Mar-19 08:56 35.103486 -116.401707 39 24632ft 399kts
13-Mar-19 08:58 35.190591 -116.291468 34 23522ft 382kts
13-Mar-19 08:58 35.251725 -116.215232 34 22689ft 374kts
13-Mar-19 08:59 35.322937 -116.125887 35 21011ft 362kts
13-Mar-19 09:00 35.391763 -116.039184 35 19120ft 350kts
13-Mar-19 09:01 35.457148 -115.956397 36 17092ft 320kts
13-Mar-19 09:02 35.516279 -115.881430 36 15095ft 297kts
13-Mar-19 09:03 35.573116 -115.809429 37 13114ft 295kts
13-Mar-19 09:04 35.629427 -115.738037 37 13004ft 308kts
13-Mar-19 09:05 35.685582 -115.666381 37 13000ft 287kts
13-Mar-19 09:06 35.741110 -115.596149 34 12999ft 284kts
13-Mar-19 09:07 35.759781 -115.498126 90 11983ft 324kts
13-Mar-19 09:08 35.747582 -115.388759 91 10233ft 326kts
13-Mar-19 09:09 35.736556 -115.280751 91 8207ft 307kts
13-Mar-19 09:10 35.726835 -115.185792 91 8025ft 269kts
13-Mar-19 09:11 35.740668 -115.101942 31 7384ft 250kts
13-Mar-19 09:12 35.800464 -115.110608 325 6027ft 233kts
13-Mar-19 09:13 35.850651 -115.157650 325 5832ft 226kts
13-Mar-19 09:14 35.900356 -115.201155 327 5328ft 218kts
13-Mar-19 09:15 35.951633 -115.239224 351 5329ft 216kts
13-Mar-19 09:16 36.005903 -115.213107 33 4262ft 195kts
13-Mar-19 09:17 36.045797 -115.187168 20 2977ft 144kts
13-Mar-19 09:18 36.079482 -115.167936 20 2170ft 119kts
13-Mar-19 09:19 36.095223 -115.158331 57 2101ft 24kts
13-Mar-19 09:20 36.094274 -115.153953 177 2089ft 7kts
13-Mar-19 09:21 36.089498 -115.156436 202 2109ft 27kts
13-Mar-19 09:22 36.082365 -115.155413 155 2122ft 28kts
13-Mar-19 09:23 36.078563 -115.147965 94 2102ft 22kts
13-Mar-19 09:24 36.081185 -115.145217 299 2088ft 7kts
13-Mar-19 09:25 36.081259 -115.146076 271 2091ft 0kts
13-Mar-19 09:26 36.081259 -115.146076 271 2091ft 0kts

Navigation Log

Ident Type
Flight plan parsing failed, navigation log unavailable